sensor_id;sensor_type;location;lat;lon;timestamp;P1;durP1;ratioP1;P2;durP2;ratioP2
21780;SDS011;52576;53.614;9.894;2023-01-15T00:01:59;4.50;;;0.88;;
21780;SDS011;52576;53.614;9.894;2023-01-15T00:04:03;8.88;;;1.10;;
21780;SDS011;52576;53.614;9.894;2023-01-15T00:06:08;7.38;;;0.98;;
21780;SDS011;52576;53.614;9.894;2023-01-15T00:08:12;6.18;;;1.05;;
21780;SDS011;52576;53.614;9.894;2023-01-15T00:10:15;4.28;;;0.75;;
21780;SDS011;52576;53.614;9.894;2023-01-15T00:12:18;9.10;;;1.00;;
21780;SDS011;52576;53.614;9.894;2023-01-15T00:14:21;6.65;;;1.25;;
21780;SDS011;52576;53.614;9.894;2023-01-15T00:16:25;7.90;;;1.48;;
21780;SDS011;52576;53.614;9.894;2023-01-15T00:18:28;4.78;;;0.85;;
21780;SDS011;52576;53.614;9.894;2023-01-15T00:20:32;5.55;;;1.20;;
21780;SDS011;52576;53.614;9.894;2023-01-15T00:22:35;4.82;;;1.00;;
21780;SDS011;52576;53.614;9.894;2023-01-15T00:24:39;7.90;;;1.20;;
21780;SDS011;52576;53.614;9.894;2023-01-15T00:27:04;9.10;;;1.00;;
21780;SDS011;52576;53.614;9.894;2023-01-15T00:29:25;4.60;;;1.27;;
21780;SDS011;52576;53.614;9.894;2023-01-15T00:31:29;7.10;;;1.15;;
21780;SDS011;52576;53.614;9.894;2023-01-15T00:33:33;5.20;;;0.95;;
21780;SDS011;52576;53.614;9.894;2023-01-15T00:35:36;4.90;;;0.90;;
21780;SDS011;52576;53.614;9.894;2023-01-15T00:37:40;7.78;;;1.25;;
21780;SDS011;52576;53.614;9.894;2023-01-15T00:39:45;6.65;;;1.00;;
21780;SDS011;52576;53.614;9.894;2023-01-15T00:41:49;9.13;;;1.05;;
21780;SDS011;52576;53.614;9.894;2023-01-15T00:43:52;10.10;;;1.17;;
21780;SDS011;52576;53.614;9.894;2023-01-15T00:45:55;5.32;;;0.90;;
21780;SDS011;52576;53.614;9.894;2023-01-15T00:47:58;6.47;;;1.13;;
21780;SDS011;52576;53.614;9.894;2023-01-15T00:50:02;7.15;;;1.15;;
21780;SDS011;52576;53.614;9.894;2023-01-15T00:52:05;6.30;;;1.02;;
21780;SDS011;52576;53.614;9.894;2023-01-15T00:54:08;6.72;;;1.05;;
21780;SDS011;52576;53.614;9.894;2023-01-15T00:56:12;5.90;;;1.42;;
21780;SDS011;52576;53.614;9.894;2023-01-15T00:58:15;8.10;;;1.20;;
21780;SDS011;52576;53.614;9.894;2023-01-15T01:00:19;5.10;;;0.98;;
21780;SDS011;52576;53.614;9.894;2023-01-15T01:02:22;6.03;;;1.08;;
21780;SDS011;52576;53.614;9.894;2023-01-15T01:04:25;5.53;;;1.02;;
21780;SDS011;52576;53.614;9.894;2023-01-15T01:06:29;7.88;;;1.17;;
21780;SDS011;52576;53.614;9.894;2023-01-15T01:08:33;7.55;;;0.90;;
21780;SDS011;52576;53.614;9.894;2023-01-15T01:10:36;5.72;;;0.90;;
21780;SDS011;52576;53.614;9.894;2023-01-15T01:12:41;7.18;;;1.15;;
21780;SDS011;52576;53.614;9.894;2023-01-15T01:14:44;8.05;;;1.52;;
21780;SDS011;52576;53.614;9.894;2023-01-15T01:16:47;4.82;;;1.10;;
21780;SDS011;52576;53.614;9.894;2023-01-15T01:18:50;6.00;;;1.23;;
21780;SDS011;52576;53.614;9.894;2023-01-15T01:20:54;5.32;;;0.98;;
21780;SDS011;52576;53.614;9.894;2023-01-15T01:22:57;4.68;;;1.05;;
21780;SDS011;52576;53.614;9.894;2023-01-15T01:25:00;5.57;;;1.17;;
21780;SDS011;52576;53.614;9.894;2023-01-15T01:27:04;4.95;;;1.00;;
21780;SDS011;52576;53.614;9.894;2023-01-15T01:29:09;7.78;;;0.88;;
21780;SDS011;52576;53.614;9.894;2023-01-15T01:31:13;6.50;;;1.15;;
21780;SDS011;52576;53.614;9.894;2023-01-15T01:33:16;4.68;;;0.90;;
21780;SDS011;52576;53.614;9.894;2023-01-15T01:35:19;3.92;;;0.90;;
21780;SDS011;52576;53.614;9.894;2023-01-15T01:37:22;9.07;;;1.10;;
21780;SDS011;52576;53.614;9.894;2023-01-15T01:39:25;8.00;;;1.15;;
21780;SDS011;52576;53.614;9.894;2023-01-15T01:41:28;6.15;;;1.10;;
21780;SDS011;52576;53.614;9.894;2023-01-15T01:43:49;5.28;;;0.80;;
21780;SDS011;52576;53.614;9.894;2023-01-15T01:45:55;5.28;;;1.10;;
21780;SDS011;52576;53.614;9.894;2023-01-15T01:48:00;8.05;;;1.00;;
21780;SDS011;52576;53.614;9.894;2023-01-15T01:50:07;3.78;;;1.00;;
21780;SDS011;52576;53.614;9.894;2023-01-15T01:52:14;6.50;;;1.10;;
21780;SDS011;52576;53.614;9.894;2023-01-15T01:54:21;9.55;;;1.30;;
21780;SDS011;52576;53.614;9.894;2023-01-15T01:56:26;9.52;;;1.60;;
21780;SDS011;52576;53.614;9.894;2023-01-15T01:58:29;4.10;;;1.10;;
21780;SDS011;52576;53.614;9.894;2023-01-15T02:00:34;8.95;;;1.55;;
21780;SDS011;52576;53.614;9.894;2023-01-15T02:02:41;15.00;;;1.90;;
21780;SDS011;52576;53.614;9.894;2023-01-15T02:04:48;6.60;;;1.05;;
21780;SDS011;52576;53.614;9.894;2023-01-15T02:06:51;10.02;;;1.67;;
21780;SDS011;52576;53.614;9.894;2023-01-15T02:08:55;6.50;;;1.20;;
21780;SDS011;52576;53.614;9.894;2023-01-15T02:10:58;7.72;;;1.48;;
21780;SDS011;52576;53.614;9.894;2023-01-15T02:13:05;11.05;;;1.67;;
21780;SDS011;52576;53.614;9.894;2023-01-15T02:15:14;8.90;;;1.30;;
21780;SDS011;52576;53.614;9.894;2023-01-15T02:17:23;9.85;;;1.52;;
21780;SDS011;52576;53.614;9.894;2023-01-15T02:19:36;6.25;;;1.30;;
21780;SDS011;52576;53.614;9.894;2023-01-15T02:21:47;7.68;;;1.67;;
21780;SDS011;52576;53.614;9.894;2023-01-15T02:24:05;6.50;;;1.52;;
21780;SDS011;52576;53.614;9.894;2023-01-15T02:28:56;10.82;;;1.50;;
21780;SDS011;52576;53.614;9.894;2023-01-15T02:31:01;9.00;;;1.23;;
21780;SDS011;52576;53.614;9.894;2023-01-15T02:33:10;7.47;;;1.60;;
21780;SDS011;52576;53.614;9.894;2023-01-15T02:35:20;7.15;;;1.55;;
21780;SDS011;52576;53.614;9.894;2023-01-15T02:37:29;18.27;;;1.75;;
21780;SDS011;52576;53.614;9.894;2023-01-15T02:39:36;9.85;;;1.55;;
21780;SDS011;52576;53.614;9.894;2023-01-15T02:41:44;11.68;;;1.27;;
21780;SDS011;52576;53.614;9.894;2023-01-15T02:43:50;9.13;;;1.75;;
21780;SDS011;52576;53.614;9.894;2023-01-15T02:45:59;11.70;;;1.65;;
21780;SDS011;52576;53.614;9.894;2023-01-15T02:48:07;8.10;;;1.50;;
21780;SDS011;52576;53.614;9.894;2023-01-15T02:50:16;7.47;;;1.60;;
21780;SDS011;52576;53.614;9.894;2023-01-15T02:52:23;8.90;;;1.48;;
21780;SDS011;52576;53.614;9.894;2023-01-15T02:54:30;9.07;;;1.48;;
21780;SDS011;52576;53.614;9.894;2023-01-15T02:56:39;7.72;;;1.50;;
21780;SDS011;52576;53.614;9.894;2023-01-15T02:58:46;17.83;;;1.42;;
21780;SDS011;52576;53.614;9.894;2023-01-15T03:00:53;9.68;;;1.38;;
21780;SDS011;52576;53.614;9.894;2023-01-15T03:03:02;8.10;;;1.55;;
21780;SDS011;52576;53.614;9.894;2023-01-15T03:05:13;9.45;;;1.30;;
21780;SDS011;52576;53.614;9.894;2023-01-15T03:07:22;4.90;;;1.33;;
21780;SDS011;52576;53.614;9.894;2023-01-15T03:09:29;13.13;;;1.50;;
21780;SDS011;52576;53.614;9.894;2023-01-15T03:11:35;15.48;;;1.85;;
21780;SDS011;52576;53.614;9.894;2023-01-15T03:13:44;9.55;;;1.75;;
21780;SDS011;52576;53.614;9.894;2023-01-15T03:15:50;13.80;;;1.65;;
21780;SDS011;52576;53.614;9.894;2023-01-15T03:18:16;9.68;;;1.60;;
21780;SDS011;52576;53.614;9.894;2023-01-15T03:20:24;14.98;;;1.88;;
21780;SDS011;52576;53.614;9.894;2023-01-15T03:22:30;10.55;;;1.50;;
21780;SDS011;52576;53.614;9.894;2023-01-15T03:24:38;11.85;;;1.90;;
21780;SDS011;52576;53.614;9.894;2023-01-15T03:26:46;17.65;;;1.23;;
21780;SDS011;52576;53.614;9.894;2023-01-15T03:28:49;14.98;;;1.92;;
21780;SDS011;52576;53.614;9.894;2023-01-15T03:30:53;9.18;;;1.50;;
21780;SDS011;52576;53.614;9.894;2023-01-15T03:32:57;11.88;;;1.70;;
21780;SDS011;52576;53.614;9.894;2023-01-15T03:35:04;9.25;;;1.35;;
21780;SDS011;52576;53.614;9.894;2023-01-15T03:37:13;8.27;;;1.65;;
21780;SDS011;52576;53.614;9.894;2023-01-15T03:39:16;12.95;;;2.03;;
21780;SDS011;52576;53.614;9.894;2023-01-15T03:41:29;13.80;;;1.80;;
21780;SDS011;52576;53.614;9.894;2023-01-15T03:43:40;9.68;;;1.58;;
21780;SDS011;52576;53.614;9.894;2023-01-15T03:45:53;12.65;;;1.90;;
21780;SDS011;52576;53.614;9.894;2023-01-15T03:48:01;13.35;;;2.00;;
21780;SDS011;52576;53.614;9.894;2023-01-15T03:50:16;16.65;;;2.13;;
21780;SDS011;52576;53.614;9.894;2023-01-15T03:52:25;14.57;;;2.00;;
21780;SDS011;52576;53.614;9.894;2023-01-15T03:54:35;13.43;;;1.83;;
21780;SDS011;52576;53.614;9.894;2023-01-15T03:58:58;14.23;;;2.00;;
21780;SDS011;52576;53.614;9.894;2023-01-15T04:01:23;13.50;;;1.50;;
21780;SDS011;52576;53.614;9.894;2023-01-15T04:03:29;6.28;;;1.50;;
21780;SDS011;52576;53.614;9.894;2023-01-15T04:05:37;9.02;;;2.00;;
21780;SDS011;52576;53.614;9.894;2023-01-15T04:07:42;14.88;;;2.00;;
21780;SDS011;52576;53.614;9.894;2023-01-15T04:09:47;15.85;;;2.38;;
21780;SDS011;52576;53.614;9.894;2023-01-15T04:11:51;13.98;;;2.00;;
21780;SDS011;52576;53.614;9.894;2023-01-15T04:13:54;12.85;;;1.75;;
21780;SDS011;52576;53.614;9.894;2023-01-15T04:16:07;11.00;;;1.80;;
21780;SDS011;52576;53.614;9.894;2023-01-15T04:18:10;7.88;;;1.42;;
21780;SDS011;52576;53.614;9.894;2023-01-15T04:20:13;9.82;;;2.00;;
21780;SDS011;52576;53.614;9.894;2023-01-15T04:22:19;10.45;;;1.75;;
21780;SDS011;52576;53.614;9.894;2023-01-15T04:24:22;9.82;;;1.70;;
21780;SDS011;52576;53.614;9.894;2023-01-15T04:26:26;14.60;;;2.00;;
21780;SDS011;52576;53.614;9.894;2023-01-15T04:28:29;14.93;;;2.13;;
21780;SDS011;52576;53.614;9.894;2023-01-15T04:30:33;11.43;;;1.90;;
21780;SDS011;52576;53.614;9.894;2023-01-15T04:32:37;11.18;;;1.70;;
21780;SDS011;52576;53.614;9.894;2023-01-15T04:34:40;12.68;;;1.90;;
21780;SDS011;52576;53.614;9.894;2023-01-15T04:36:43;11.15;;;1.90;;
21780;SDS011;52576;53.614;9.894;2023-01-15T04:38:49;11.35;;;1.98;;
21780;SDS011;52576;53.614;9.894;2023-01-15T04:40:53;10.35;;;1.88;;
21780;SDS011;52576;53.614;9.894;2023-01-15T04:43:13;14.55;;;1.98;;
21780;SDS011;52576;53.614;9.894;2023-01-15T04:45:34;15.10;;;1.75;;
21780;SDS011;52576;53.614;9.894;2023-01-15T04:47:37;10.10;;;1.60;;
21780;SDS011;52576;53.614;9.894;2023-01-15T04:49:40;10.02;;;1.80;;
21780;SDS011;52576;53.614;9.894;2023-01-15T04:51:43;11.82;;;1.65;;
21780;SDS011;52576;53.614;9.894;2023-01-15T04:53:48;15.35;;;1.92;;
21780;SDS011;52576;53.614;9.894;2023-01-15T04:55:52;15.48;;;2.25;;
21780;SDS011;52576;53.614;9.894;2023-01-15T05:00:07;18.92;;;2.22;;
21780;SDS011;52576;53.614;9.894;2023-01-15T05:02:11;16.27;;;2.42;;
21780;SDS011;52576;53.614;9.894;2023-01-15T05:04:16;15.32;;;2.35;;
21780;SDS011;52576;53.614;9.894;2023-01-15T05:06:19;14.52;;;2.10;;
21780;SDS011;52576;53.614;9.894;2023-01-15T05:08:22;17.40;;;2.63;;
21780;SDS011;52576;53.614;9.894;2023-01-15T05:10:26;14.65;;;2.53;;
21780;SDS011;52576;53.614;9.894;2023-01-15T05:12:29;14.00;;;1.65;;
21780;SDS011;52576;53.614;9.894;2023-01-15T05:14:32;10.38;;;1.60;;
21780;SDS011;52576;53.614;9.894;2023-01-15T05:16:35;8.60;;;1.58;;
21780;SDS011;52576;53.614;9.894;2023-01-15T05:18:39;13.10;;;1.77;;
21780;SDS011;52576;53.614;9.894;2023-01-15T05:20:42;11.93;;;1.70;;
21780;SDS011;52576;53.614;9.894;2023-01-15T05:22:46;12.60;;;1.60;;
21780;SDS011;52576;53.614;9.894;2023-01-15T05:24:49;14.60;;;1.90;;
21780;SDS011;52576;53.614;9.894;2023-01-15T05:26:53;13.50;;;1.80;;
21780;SDS011;52576;53.614;9.894;2023-01-15T05:28:58;16.92;;;2.15;;
21780;SDS011;52576;53.614;9.894;2023-01-15T05:31:06;9.27;;;1.73;;
21780;SDS011;52576;53.614;9.894;2023-01-15T05:33:10;11.95;;;1.80;;
21780;SDS011;52576;53.614;9.894;2023-01-15T05:35:13;13.52;;;2.15;;
21780;SDS011;52576;53.614;9.894;2023-01-15T05:37:16;9.23;;;1.58;;
21780;SDS011;52576;53.614;9.894;2023-01-15T05:39:19;10.30;;;1.90;;
21780;SDS011;52576;53.614;9.894;2023-01-15T05:41:22;11.38;;;1.90;;
21780;SDS011;52576;53.614;9.894;2023-01-15T05:43:44;12.63;;;2.13;;
21780;SDS011;52576;53.614;9.894;2023-01-15T05:45:47;7.80;;;1.65;;
21780;SDS011;52576;53.614;9.894;2023-01-15T05:47:51;18.42;;;2.70;;
21780;SDS011;52576;53.614;9.894;2023-01-15T05:49:54;18.75;;;2.30;;
21780;SDS011;52576;53.614;9.894;2023-01-15T05:51:58;20.02;;;2.30;;
21780;SDS011;52576;53.614;9.894;2023-01-15T05:54:03;15.60;;;1.92;;
21780;SDS011;52576;53.614;9.894;2023-01-15T05:56:08;12.48;;;2.30;;
21780;SDS011;52576;53.614;9.894;2023-01-15T05:58:11;17.23;;;2.65;;
21780;SDS011;52576;53.614;9.894;2023-01-15T06:00:16;15.27;;;2.28;;
21780;SDS011;52576;53.614;9.894;2023-01-15T06:02:20;14.98;;;2.45;;
21780;SDS011;52576;53.614;9.894;2023-01-15T06:04:23;10.77;;;2.10;;
21780;SDS011;52576;53.614;9.894;2023-01-15T06:06:27;13.38;;;2.25;;
21780;SDS011;52576;53.614;9.894;2023-01-15T06:08:30;14.50;;;2.00;;
21780;SDS011;52576;53.614;9.894;2023-01-15T06:10:33;9.02;;;1.85;;
21780;SDS011;52576;53.614;9.894;2023-01-15T06:12:36;13.18;;;2.08;;
21780;SDS011;52576;53.614;9.894;2023-01-15T06:14:39;13.68;;;2.65;;
21780;SDS011;52576;53.614;9.894;2023-01-15T06:16:44;10.38;;;2.10;;
21780;SDS011;52576;53.614;9.894;2023-01-15T06:18:47;10.25;;;1.92;;
21780;SDS011;52576;53.614;9.894;2023-01-15T06:20:50;12.50;;;2.05;;
21780;SDS011;52576;53.614;9.894;2023-01-15T06:22:53;13.88;;;2.22;;
21780;SDS011;52576;53.614;9.894;2023-01-15T06:24:56;14.77;;;2.05;;
21780;SDS011;52576;53.614;9.894;2023-01-15T06:26:59;12.63;;;1.90;;
21780;SDS011;52576;53.614;9.894;2023-01-15T06:29:02;10.48;;;2.10;;
21780;SDS011;52576;53.614;9.894;2023-01-15T06:31:06;17.83;;;2.15;;
21780;SDS011;52576;53.614;9.894;2023-01-15T06:33:12;14.82;;;2.08;;
21780;SDS011;52576;53.614;9.894;2023-01-15T06:35:15;13.40;;;2.00;;
21780;SDS011;52576;53.614;9.894;2023-01-15T06:37:18;21.52;;;2.13;;
21780;SDS011;52576;53.614;9.894;2023-01-15T06:39:21;13.23;;;1.70;;
21780;SDS011;52576;53.614;9.894;2023-01-15T06:41:25;13.45;;;2.15;;
21780;SDS011;52576;53.614;9.894;2023-01-15T06:43:46;12.32;;;1.95;;
21780;SDS011;52576;53.614;9.894;2023-01-15T06:46:06;17.23;;;2.60;;
21780;SDS011;52576;53.614;9.894;2023-01-15T06:50:32;12.60;;;2.10;;
21780;SDS011;52576;53.614;9.894;2023-01-15T06:52:35;13.93;;;2.10;;
21780;SDS011;52576;53.614;9.894;2023-01-15T06:54:39;10.48;;;2.20;;
21780;SDS011;52576;53.614;9.894;2023-01-15T06:56:42;10.60;;;2.00;;
21780;SDS011;52576;53.614;9.894;2023-01-15T06:58:45;16.92;;;2.17;;
21780;SDS011;52576;53.614;9.894;2023-01-15T07:00:48;15.25;;;2.10;;
21780;SDS011;52576;53.614;9.894;2023-01-15T07:02:58;13.10;;;2.15;;
21780;SDS011;52576;53.614;9.894;2023-01-15T07:05:03;9.25;;;1.80;;
21780;SDS011;52576;53.614;9.894;2023-01-15T07:07:06;16.45;;;1.83;;
21780;SDS011;52576;53.614;9.894;2023-01-15T07:09:09;14.63;;;2.50;;
21780;SDS011;52576;53.614;9.894;2023-01-15T07:11:13;12.07;;;1.90;;
21780;SDS011;52576;53.614;9.894;2023-01-15T07:13:18;23.15;;;2.95;;
21780;SDS011;52576;53.614;9.894;2023-01-15T07:15:21;13.77;;;2.35;;
21780;SDS011;52576;53.614;9.894;2023-01-15T07:17:24;15.52;;;2.55;;
21780;SDS011;52576;53.614;9.894;2023-01-15T07:19:27;13.13;;;2.00;;
21780;SDS011;52576;53.614;9.894;2023-01-15T07:21:31;11.48;;;2.20;;
21780;SDS011;52576;53.614;9.894;2023-01-15T07:23:34;12.93;;;1.67;;
21780;SDS011;52576;53.614;9.894;2023-01-15T07:25:37;15.05;;;2.50;;
21780;SDS011;52576;53.614;9.894;2023-01-15T07:27:40;15.05;;;2.35;;
21780;SDS011;52576;53.614;9.894;2023-01-15T07:29:44;15.82;;;3.10;;
21780;SDS011;52576;53.614;9.894;2023-01-15T07:31:47;14.45;;;2.28;;
21780;SDS011;52576;53.614;9.894;2023-01-15T07:33:50;16.63;;;2.47;;
21780;SDS011;52576;53.614;9.894;2023-01-15T07:35:53;13.23;;;2.17;;
21780;SDS011;52576;53.614;9.894;2023-01-15T07:37:58;12.25;;;2.05;;
21780;SDS011;52576;53.614;9.894;2023-01-15T07:40:01;10.27;;;1.63;;
21780;SDS011;52576;53.614;9.894;2023-01-15T07:42:04;14.25;;;2.33;;
21780;SDS011;52576;53.614;9.894;2023-01-15T07:46:56;12.65;;;2.13;;
21780;SDS011;52576;53.614;9.894;2023-01-15T07:49:17;19.00;;;2.10;;
21780;SDS011;52576;53.614;9.894;2023-01-15T07:51:38;12.77;;;2.10;;
21780;SDS011;52576;53.614;9.894;2023-01-15T07:53:42;14.60;;;2.90;;
21780;SDS011;52576;53.614;9.894;2023-01-15T07:55:45;12.80;;;2.10;;
21780;SDS011;52576;53.614;9.894;2023-01-15T07:57:48;15.20;;;2.00;;
21780;SDS011;52576;53.614;9.894;2023-01-15T07:59:52;11.90;;;2.17;;
21780;SDS011;52576;53.614;9.894;2023-01-15T08:01:56;15.20;;;2.10;;
21780;SDS011;52576;53.614;9.894;2023-01-15T08:04:00;16.85;;;2.45;;
21780;SDS011;52576;53.614;9.894;2023-01-15T08:06:03;12.77;;;2.60;;
21780;SDS011;52576;53.614;9.894;2023-01-15T08:08:12;12.15;;;2.10;;
21780;SDS011;52576;53.614;9.894;2023-01-15T08:10:18;10.57;;;2.08;;
21780;SDS011;52576;53.614;9.894;2023-01-15T08:12:21;12.13;;;2.45;;
21780;SDS011;52576;53.614;9.894;2023-01-15T08:14:41;13.48;;;2.13;;
21780;SDS011;52576;53.614;9.894;2023-01-15T08:17:02;10.60;;;1.77;;
21780;SDS011;52576;53.614;9.894;2023-01-15T08:19:05;12.63;;;2.50;;
21780;SDS011;52576;53.614;9.894;2023-01-15T08:21:11;13.77;;;2.38;;
21780;SDS011;52576;53.614;9.894;2023-01-15T08:23:15;12.48;;;2.10;;
21780;SDS011;52576;53.614;9.894;2023-01-15T08:25:21;9.80;;;2.03;;
21780;SDS011;52576;53.614;9.894;2023-01-15T08:27:25;11.50;;;2.05;;
21780;SDS011;52576;53.614;9.894;2023-01-15T08:29:29;14.07;;;2.08;;
21780;SDS011;52576;53.614;9.894;2023-01-15T08:31:32;14.65;;;2.53;;
21780;SDS011;52576;53.614;9.894;2023-01-15T08:33:35;14.82;;;2.17;;
21780;SDS011;52576;53.614;9.894;2023-01-15T08:35:38;7.78;;;2.17;;
21780;SDS011;52576;53.614;9.894;2023-01-15T08:37:42;12.68;;;2.00;;
21780;SDS011;52576;53.614;9.894;2023-01-15T08:39:46;15.90;;;2.08;;
21780;SDS011;52576;53.614;9.894;2023-01-15T08:41:50;13.75;;;2.30;;
21780;SDS011;52576;53.614;9.894;2023-01-15T08:43:53;12.27;;;2.03;;
21780;SDS011;52576;53.614;9.894;2023-01-15T08:45:57;15.45;;;2.10;;
21780;SDS011;52576;53.614;9.894;2023-01-15T08:48:00;12.35;;;1.90;;
21780;SDS011;52576;53.614;9.894;2023-01-15T08:50:04;14.55;;;2.53;;
21780;SDS011;52576;53.614;9.894;2023-01-15T08:52:09;13.40;;;1.85;;
21780;SDS011;52576;53.614;9.894;2023-01-15T08:54:12;15.27;;;2.45;;
21780;SDS011;52576;53.614;9.894;2023-01-15T08:56:16;10.23;;;2.05;;
21780;SDS011;52576;53.614;9.894;2023-01-15T08:58:22;12.60;;;1.77;;
21780;SDS011;52576;53.614;9.894;2023-01-15T09:00:25;7.95;;;2.00;;
21780;SDS011;52576;53.614;9.894;2023-01-15T09:02:28;8.93;;;1.90;;
21780;SDS011;52576;53.614;9.894;2023-01-15T09:04:31;14.65;;;1.90;;
21780;SDS011;52576;53.614;9.894;2023-01-15T09:06:34;10.30;;;2.08;;
21780;SDS011;52576;53.614;9.894;2023-01-15T09:08:38;15.63;;;2.35;;
21780;SDS011;52576;53.614;9.894;2023-01-15T09:10:41;12.63;;;2.35;;
21780;SDS011;52576;53.614;9.894;2023-01-15T09:12:44;16.30;;;2.17;;
21780;SDS011;52576;53.614;9.894;2023-01-15T09:14:49;10.30;;;1.95;;
21780;SDS011;52576;53.614;9.894;2023-01-15T09:17:04;13.55;;;2.40;;
21780;SDS011;52576;53.614;9.894;2023-01-15T09:19:10;9.85;;;2.22;;
21780;SDS011;52576;53.614;9.894;2023-01-15T09:21:14;14.43;;;2.30;;
21780;SDS011;52576;53.614;9.894;2023-01-15T09:23:17;10.10;;;2.22;;
21780;SDS011;52576;53.614;9.894;2023-01-15T09:25:20;11.73;;;1.95;;
21780;SDS011;52576;53.614;9.894;2023-01-15T09:27:26;13.85;;;1.80;;
21780;SDS011;52576;53.614;9.894;2023-01-15T09:29:29;9.77;;;2.15;;
21780;SDS011;52576;53.614;9.894;2023-01-15T09:31:34;11.70;;;1.73;;
21780;SDS011;52576;53.614;9.894;2023-01-15T09:33:37;13.15;;;2.10;;
21780;SDS011;52576;53.614;9.894;2023-01-15T09:35:40;15.27;;;2.70;;
21780;SDS011;52576;53.614;9.894;2023-01-15T09:37:48;8.05;;;2.20;;
21780;SDS011;52576;53.614;9.894;2023-01-15T09:39:52;12.23;;;2.33;;
21780;SDS011;52576;53.614;9.894;2023-01-15T09:42:02;10.02;;;1.98;;
21780;SDS011;52576;53.614;9.894;2023-01-15T09:44:22;16.48;;;2.10;;
21780;SDS011;52576;53.614;9.894;2023-01-15T09:46:36;9.63;;;2.00;;
21780;SDS011;52576;53.614;9.894;2023-01-15T09:48:49;9.95;;;1.67;;
21780;SDS011;52576;53.614;9.894;2023-01-15T09:51:04;11.38;;;2.00;;
21780;SDS011;52576;53.614;9.894;2023-01-15T09:53:25;11.38;;;1.70;;
21780;SDS011;52576;53.614;9.894;2023-01-15T09:55:39;7.57;;;1.55;;
21780;SDS011;52576;53.614;9.894;2023-01-15T09:57:48;18.52;;;1.88;;
21780;SDS011;52576;53.614;9.894;2023-01-15T09:59:55;12.63;;;1.70;;
21780;SDS011;52576;53.614;9.894;2023-01-15T10:02:17;9.02;;;1.55;;
21780;SDS011;52576;53.614;9.894;2023-01-15T10:04:28;8.10;;;1.80;;
21780;SDS011;52576;53.614;9.894;2023-01-15T10:06:37;10.15;;;1.50;;
21780;SDS011;52576;53.614;9.894;2023-01-15T10:08:45;12.00;;;1.75;;
21780;SDS011;52576;53.614;9.894;2023-01-15T10:10:51;6.25;;;1.42;;
21780;SDS011;52576;53.614;9.894;2023-01-15T10:12:58;7.10;;;1.40;;
21780;SDS011;52576;53.614;9.894;2023-01-15T10:15:09;11.65;;;2.00;;
21780;SDS011;52576;53.614;9.894;2023-01-15T10:17:24;6.85;;;1.65;;
21780;SDS011;52576;53.614;9.894;2023-01-15T10:19:29;7.32;;;1.70;;
21780;SDS011;52576;53.614;9.894;2023-01-15T10:21:46;6.38;;;1.50;;
21780;SDS011;52576;53.614;9.894;2023-01-15T10:24:00;11.50;;;1.85;;
21780;SDS011;52576;53.614;9.894;2023-01-15T10:26:14;8.95;;;1.50;;
21780;SDS011;52576;53.614;9.894;2023-01-15T10:28:27;8.52;;;1.48;;
21780;SDS011;52576;53.614;9.894;2023-01-15T10:30:33;11.18;;;1.65;;
21780;SDS011;52576;53.614;9.894;2023-01-15T10:32:46;10.25;;;1.52;;
21780;SDS011;52576;53.614;9.894;2023-01-15T10:35:16;8.82;;;1.98;;
21780;SDS011;52576;53.614;9.894;2023-01-15T10:37:26;7.15;;;1.40;;
21780;SDS011;52576;53.614;9.894;2023-01-15T10:39:36;9.60;;;1.60;;
21780;SDS011;52576;53.614;9.894;2023-01-15T10:41:55;11.18;;;1.67;;
21780;SDS011;52576;53.614;9.894;2023-01-15T10:44:15;14.48;;;2.22;;
21780;SDS011;52576;53.614;9.894;2023-01-15T10:46:24;7.32;;;1.65;;
21780;SDS011;52576;53.614;9.894;2023-01-15T10:48:37;7.07;;;1.63;;
21780;SDS011;52576;53.614;9.894;2023-01-15T10:50:43;11.25;;;1.92;;
21780;SDS011;52576;53.614;9.894;2023-01-15T10:52:48;11.00;;;1.40;;
21780;SDS011;52576;53.614;9.894;2023-01-15T10:55:00;9.98;;;1.52;;
21780;SDS011;52576;53.614;9.894;2023-01-15T10:57:08;6.05;;;1.83;;
21780;SDS011;52576;53.614;9.894;2023-01-15T10:59:20;8.38;;;1.67;;
21780;SDS011;52576;53.614;9.894;2023-01-15T11:01:26;8.02;;;1.63;;
21780;SDS011;52576;53.614;9.894;2023-01-15T11:03:31;10.02;;;1.63;;
21780;SDS011;52576;53.614;9.894;2023-01-15T11:05:38;7.43;;;1.92;;
21780;SDS011;52576;53.614;9.894;2023-01-15T11:07:43;9.18;;;1.67;;
21780;SDS011;52576;53.614;9.894;2023-01-15T11:10:09;12.02;;;1.67;;
21780;SDS011;52576;53.614;9.894;2023-01-15T11:12:19;5.20;;;1.33;;
21780;SDS011;52576;53.614;9.894;2023-01-15T11:14:43;10.45;;;1.42;;
21780;SDS011;52576;53.614;9.894;2023-01-15T11:17:07;10.77;;;1.73;;
21780;SDS011;52576;53.614;9.894;2023-01-15T11:19:36;6.28;;;1.50;;
21780;SDS011;52576;53.614;9.894;2023-01-15T11:21:41;10.80;;;1.40;;
21780;SDS011;52576;53.614;9.894;2023-01-15T11:23:45;7.90;;;1.50;;
21780;SDS011;52576;53.614;9.894;2023-01-15T11:25:50;10.25;;;1.73;;
21780;SDS011;52576;53.614;9.894;2023-01-15T11:27:56;12.38;;;1.80;;
21780;SDS011;52576;53.614;9.894;2023-01-15T11:30:02;10.05;;;1.90;;
21780;SDS011;52576;53.614;9.894;2023-01-15T11:32:16;8.65;;;1.60;;
21780;SDS011;52576;53.614;9.894;2023-01-15T11:34:21;6.63;;;1.42;;
21780;SDS011;52576;53.614;9.894;2023-01-15T11:36:28;7.85;;;1.55;;
21780;SDS011;52576;53.614;9.894;2023-01-15T11:38:42;6.20;;;1.15;;
21780;SDS011;52576;53.614;9.894;2023-01-15T11:40:50;5.82;;;1.67;;
21780;SDS011;52576;53.614;9.894;2023-01-15T11:42:54;8.30;;;1.85;;
21780;SDS011;52576;53.614;9.894;2023-01-15T11:45:15;7.68;;;1.40;;
21780;SDS011;52576;53.614;9.894;2023-01-15T11:47:48;10.95;;;1.48;;
21780;SDS011;52576;53.614;9.894;2023-01-15T11:50:15;5.82;;;1.10;;
21780;SDS011;52576;53.614;9.894;2023-01-15T11:52:40;6.03;;;1.27;;
21780;SDS011;52576;53.614;9.894;2023-01-15T11:54:46;4.35;;;0.95;;
21780;SDS011;52576;53.614;9.894;2023-01-15T11:56:53;3.55;;;0.80;;
21780;SDS011;52576;53.614;9.894;2023-01-15T11:58:57;3.30;;;0.90;;
21780;SDS011;52576;53.614;9.894;2023-01-15T12:01:03;4.53;;;0.73;;
21780;SDS011;52576;53.614;9.894;2023-01-15T12:03:10;2.60;;;0.73;;
21780;SDS011;52576;53.614;9.894;2023-01-15T12:05:17;2.10;;;0.67;;
21780;SDS011;52576;53.614;9.894;2023-01-15T12:07:22;1.90;;;0.50;;
21780;SDS011;52576;53.614;9.894;2023-01-15T12:09:34;5.03;;;0.60;;
21780;SDS011;52576;53.614;9.894;2023-01-15T12:11:54;1.88;;;0.57;;
21780;SDS011;52576;53.614;9.894;2023-01-15T12:14:16;3.75;;;0.50;;
21780;SDS011;52576;53.614;9.894;2023-01-15T12:16:34;4.78;;;0.90;;
21780;SDS011;52576;53.614;9.894;2023-01-15T12:21:03;1.85;;;0.65;;
21780;SDS011;52576;53.614;9.894;2023-01-15T12:23:27;2.42;;;0.77;;
21780;SDS011;52576;53.614;9.894;2023-01-15T12:25:47;4.90;;;0.70;;
21780;SDS011;52576;53.614;9.894;2023-01-15T12:28:01;1.48;;;0.55;;
21780;SDS011;52576;53.614;9.894;2023-01-15T12:30:12;3.10;;;0.57;;
21780;SDS011;52576;53.614;9.894;2023-01-15T12:32:27;2.15;;;0.75;;
21780;SDS011;52576;53.614;9.894;2023-01-15T12:34:35;2.20;;;0.98;;
21780;SDS011;52576;53.614;9.894;2023-01-15T12:36:46;4.28;;;0.90;;
21780;SDS011;52576;53.614;9.894;2023-01-15T12:38:55;2.95;;;0.80;;
21780;SDS011;52576;53.614;9.894;2023-01-15T12:41:03;6.57;;;1.13;;
21780;SDS011;52576;53.614;9.894;2023-01-15T12:43:13;4.07;;;1.00;;
21780;SDS011;52576;53.614;9.894;2023-01-15T12:45:39;4.40;;;1.10;;
21780;SDS011;52576;53.614;9.894;2023-01-15T12:47:47;6.30;;;1.08;;
21780;SDS011;52576;53.614;9.894;2023-01-15T12:49:55;4.72;;;0.70;;
21780;SDS011;52576;53.614;9.894;2023-01-15T12:52:02;3.13;;;1.00;;
21780;SDS011;52576;53.614;9.894;2023-01-15T12:54:11;7.50;;;1.67;;
21780;SDS011;52576;53.614;9.894;2023-01-15T12:56:20;8.65;;;1.40;;